sensor_id;sensor_type;location;lat;lon;timestamp;pressure;altitude;pressure_sealevel;temperature;humidity
34103;BME280;20381;54.498;18.206;2022-11-09T00:00:49;99103.93;;;9.36;94.16
34103;BME280;20381;54.498;18.206;2022-11-09T00:03:16;99093.67;;;9.33;94.10
34103;BME280;20381;54.498;18.206;2022-11-09T00:05:43;99094.98;;;9.33;94.19
34103;BME280;20381;54.498;18.206;2022-11-09T00:08:10;99097.02;;;9.35;94.18
34103;BME280;20381;54.498;18.206;2022-11-09T00:10:37;99090.14;;;9.34;94.22
34103;BME280;20381;54.498;18.206;2022-11-09T00:13:04;99091.80;;;9.35;94.28
34103;BME280;20381;54.498;18.206;2022-11-09T00:15:31;99090.50;;;9.35;94.24
34103;BME280;20381;54.498;18.206;2022-11-09T00:17:59;99083.09;;;9.36;94.16
34103;BME280;20381;54.498;18.206;2022-11-09T00:20:27;99087.53;;;9.34;94.10
34103;BME280;20381;54.498;18.206;2022-11-09T00:22:54;99081.02;;;9.34;94.09
34103;BME280;20381;54.498;18.206;2022-11-09T00:25:22;99078.04;;;9.33;94.09
34103;BME280;20381;54.498;18.206;2022-11-09T00:27:48;99075.50;;;9.31;94.13
34103;BME280;20381;54.498;18.206;2022-11-09T00:30:15;99075.80;;;9.34;94.13
34103;BME280;20381;54.498;18.206;2022-11-09T00:32:42;99081.48;;;9.33;94.03
34103;BME280;20381;54.498;18.206;2022-11-09T00:35:09;99078.04;;;9.33;93.95
34103;BME280;20381;54.498;18.206;2022-11-09T00:37:36;99055.22;;;9.21;93.83
34103;BME280;20381;54.498;18.206;2022-11-09T00:40:03;99055.22;;;9.21;93.83
34103;BME280;20381;54.498;18.206;2022-11-09T00:42:30;99072.83;;;9.33;94.04
34103;BME280;20381;54.498;18.206;2022-11-09T00:44:56;99069.30;;;9.34;93.91
34103;BME280;20381;54.498;18.206;2022-11-09T00:47:23;99069.76;;;9.33;94.01
34103;BME280;20381;54.498;18.206;2022-11-09T00:49:49;99068.83;;;9.34;94.02
34103;BME280;20381;54.498;18.206;2022-11-09T00:52:16;99069.30;;;9.34;93.96
34103;BME280;20381;54.498;18.206;2022-11-09T00:54:43;99070.97;;;9.35;93.96
34103;BME280;20381;54.498;18.206;2022-11-09T00:57:11;99074.81;;;9.36;94.02
34103;BME280;20381;54.498;18.206;2022-11-09T00:59:38;99066.52;;;9.37;93.98
34103;BME280;20381;54.498;18.206;2022-11-09T01:02:05;99072.50;;;9.39;93.86
34103;BME280;20381;54.498;18.206;2022-11-09T01:04:32;99067.36;;;9.37;93.80
34103;BME280;20381;54.498;18.206;2022-11-09T01:06:58;99077.72;;;9.39;93.70
34103;BME280;20381;54.498;18.206;2022-11-09T01:09:25;99086.43;;;9.38;93.73
34103;BME280;20381;54.498;18.206;2022-11-09T01:11:52;99086.43;;;9.38;93.71
34103;BME280;20381;54.498;18.206;2022-11-09T01:14:19;99081.22;;;9.38;93.69
34103;BME280;20381;54.498;18.206;2022-11-09T01:16:45;99086.59;;;9.35;93.63
34103;BME280;20381;54.498;18.206;2022-11-09T01:19:12;99099.46;;;9.38;93.62
34103;BME280;20381;54.498;18.206;2022-11-09T01:21:39;99097.78;;;9.37;93.63
34103;BME280;20381;54.498;18.206;2022-11-09T01:24:06;99098.56;;;9.39;93.64
34103;BME280;20381;54.498;18.206;2022-11-09T01:26:33;99098.09;;;9.39;93.56
34103;BME280;20381;54.498;18.206;2022-11-09T01:28:59;99100.39;;;9.37;93.52
34103;BME280;20381;54.498;18.206;2022-11-09T01:31:26;99098.88;;;9.33;93.56
34103;BME280;20381;54.498;18.206;2022-11-09T01:33:53;99101.04;;;9.25;93.37
34103;BME280;20381;54.498;18.206;2022-11-09T01:36:21;99101.04;;;9.25;93.37
34103;BME280;20381;54.498;18.206;2022-11-09T01:38:49;99101.27;;;9.20;93.39
34103;BME280;20381;54.498;18.206;2022-11-09T01:41:24;99096.45;;;9.12;93.38
34103;BME280;20381;54.498;18.206;2022-11-09T01:44:05;99095.83;;;9.07;93.40
34103;BME280;20381;54.498;18.206;2022-11-09T01:46:52;99096.92;;;9.03;93.45
34103;BME280;20381;54.498;18.206;2022-11-09T01:52:23;99089.74;;;8.91;93.24
34103;BME280;20381;54.498;18.206;2022-11-09T01:54:58;99094.49;;;8.83;93.24
34103;BME280;20381;54.498;18.206;2022-11-09T01:57:40;99091.27;;;8.78;93.39
34103;BME280;20381;54.498;18.206;2022-11-09T02:00:12;99085.29;;;8.76;93.20
34103;BME280;20381;54.498;18.206;2022-11-09T02:02:46;99077.70;;;8.71;93.19
34103;BME280;20381;54.498;18.206;2022-11-09T02:05:18;99085.30;;;8.67;93.17
34103;BME280;20381;54.498;18.206;2022-11-09T02:07:48;99085.91;;;8.63;93.27
34103;BME280;20381;54.498;18.206;2022-11-09T02:10:33;99088.20;;;8.61;93.34
34103;BME280;20381;54.498;18.206;2022-11-09T02:13:08;99082.23;;;8.59;93.40
34103;BME280;20381;54.498;18.206;2022-11-09T02:15:38;99073.42;;;8.61;93.46
34103;BME280;20381;54.498;18.206;2022-11-09T02:18:05;99074.73;;;8.61;93.59
34103;BME280;20381;54.498;18.206;2022-11-09T02:20:52;99069.00;;;8.63;93.71
34103;BME280;20381;54.498;18.206;2022-11-09T02:23:15;99069.37;;;8.64;93.67
34103;BME280;20381;54.498;18.206;2022-11-09T02:25:44;99063.11;;;8.68;93.68
34103;BME280;20381;54.498;18.206;2022-11-09T02:28:13;99062.80;;;8.74;93.56
34103;BME280;20381;54.498;18.206;2022-11-09T02:30:42;99057.59;;;8.74;93.60
34103;BME280;20381;54.498;18.206;2022-11-09T02:33:13;99060.03;;;8.78;93.59
34103;BME280;20381;54.498;18.206;2022-11-09T02:35:40;99063.41;;;8.80;93.63
34103;BME280;20381;54.498;18.206;2022-11-09T02:38:13;99052.84;;;8.83;93.53
34103;BME280;20381;54.498;18.206;2022-11-09T02:40:43;99036.29;;;8.84;93.48
34103;BME280;20381;54.498;18.206;2022-11-09T02:43:13;99046.55;;;8.87;93.41
34103;BME280;20381;54.498;18.206;2022-11-09T02:45:40;99049.55;;;8.88;93.33
34103;BME280;20381;54.498;18.206;2022-11-09T02:48:07;99047.69;;;8.90;93.29
34103;BME280;20381;54.498;18.206;2022-11-09T02:50:33;99063.24;;;8.91;93.37
34103;BME280;20381;54.498;18.206;2022-11-09T02:53:02;99053.83;;;8.89;93.45
34103;BME280;20381;54.498;18.206;2022-11-09T02:55:29;99041.17;;;8.90;93.51
34103;BME280;20381;54.498;18.206;2022-11-09T02:57:56;99043.46;;;8.96;93.37
34103;BME280;20381;54.498;18.206;2022-11-09T03:00:22;99051.27;;;8.96;93.25
34103;BME280;20381;54.498;18.206;2022-11-09T03:02:49;99061.31;;;8.95;93.11
34103;BME280;20381;54.498;18.206;2022-11-09T03:05:16;99054.91;;;8.93;93.11
34103;BME280;20381;54.498;18.206;2022-11-09T03:07:43;99043.78;;;8.90;93.06
34103;BME280;20381;54.498;18.206;2022-11-09T03:10:09;99038.67;;;8.88;93.14
34103;BME280;20381;54.498;18.206;2022-11-09T03:12:36;99036.13;;;8.87;93.14
34103;BME280;20381;54.498;18.206;2022-11-09T03:15:05;99037.28;;;8.81;93.22
34103;BME280;20381;54.498;18.206;2022-11-09T03:17:33;99038.28;;;8.79;93.37
34103;BME280;20381;54.498;18.206;2022-11-09T03:20:00;99044.05;;;8.77;93.36
34103;BME280;20381;54.498;18.206;2022-11-09T03:22:28;99047.18;;;8.74;93.35
34103;BME280;20381;54.498;18.206;2022-11-09T03:24:54;99042.97;;;8.72;93.41
34103;BME280;20381;54.498;18.206;2022-11-09T03:27:21;99042.13;;;8.71;93.44
34103;BME280;20381;54.498;18.206;2022-11-09T03:29:47;99041.36;;;8.69;93.47
34103;BME280;20381;54.498;18.206;2022-11-09T03:32:14;99037.83;;;8.70;93.48
34103;BME280;20381;54.498;18.206;2022-11-09T03:34:41;99035.69;;;8.70;93.41
34103;BME280;20381;54.498;18.206;2022-11-09T03:37:07;99042.88;;;8.73;93.47
34103;BME280;20381;54.498;18.206;2022-11-09T03:39:34;99039.84;;;8.74;93.62
34103;BME280;20381;54.498;18.206;2022-11-09T03:42:01;99028.49;;;8.75;93.60
34103;BME280;20381;54.498;18.206;2022-11-09T03:44:27;99020.98;;;8.78;93.59
34103;BME280;20381;54.498;18.206;2022-11-09T03:46:54;99028.48;;;8.84;93.53
34103;BME280;20381;54.498;18.206;2022-11-09T03:49:21;99027.42;;;8.88;93.39
34103;BME280;20381;54.498;18.206;2022-11-09T03:51:48;99027.42;;;8.88;93.47
34103;BME280;20381;54.498;18.206;2022-11-09T03:54:16;99025.56;;;8.90;93.48
34103;BME280;20381;54.498;18.206;2022-11-09T03:56:43;99027.63;;;8.92;93.41
34103;BME280;20381;54.498;18.206;2022-11-09T03:59:10;99029.86;;;8.91;93.46
34103;BME280;20381;54.498;18.206;2022-11-09T04:01:36;99024.81;;;8.88;93.64
34103;BME280;20381;54.498;18.206;2022-11-09T04:04:03;99029.70;;;8.94;93.67
34103;BME280;20381;54.498;18.206;2022-11-09T04:06:30;99028.93;;;8.92;93.65
34103;BME280;20381;54.498;18.206;2022-11-09T04:08:56;99018.89;;;8.93;93.62
34103;BME280;20381;54.498;18.206;2022-11-09T04:11:23;99011.48;;;8.94;93.58
34103;BME280;20381;54.498;18.206;2022-11-09T04:13:50;99007.94;;;8.95;93.64
34103;BME280;20381;54.498;18.206;2022-11-09T04:16:16;99013.92;;;8.97;93.69
34103;BME280;20381;54.498;18.206;2022-11-09T04:18:43;99005.78;;;9.03;93.56
34103;BME280;20381;54.498;18.206;2022-11-09T04:21:10;98999.11;;;9.06;93.42
34103;BME280;20381;54.498;18.206;2022-11-09T04:23:37;99003.02;;;9.06;93.45
34103;BME280;20381;54.498;18.206;2022-11-09T04:26:03;99008.06;;;9.09;93.40
34103;BME280;20381;54.498;18.206;2022-11-09T04:28:30;99004.69;;;9.07;93.37
34103;BME280;20381;54.498;18.206;2022-11-09T04:31:01;99010.45;;;9.05;93.37
34103;BME280;20381;54.498;18.206;2022-11-09T04:33:28;98995.20;;;9.06;93.23
34103;BME280;20381;54.498;18.206;2022-11-09T04:35:59;99002.24;;;9.04;93.15
34103;BME280;20381;54.498;18.206;2022-11-09T04:38:27;99008.45;;;9.02;93.11
34103;BME280;20381;54.498;18.206;2022-11-09T04:40:53;99002.57;;;8.98;93.14
34103;BME280;20381;54.498;18.206;2022-11-09T04:43:20;99002.89;;;8.92;93.32
34103;BME280;20381;54.498;18.206;2022-11-09T04:45:46;99009.94;;;8.90;93.22
34103;BME280;20381;54.498;18.206;2022-11-09T04:48:13;99000.09;;;8.88;93.24
34103;BME280;20381;54.498;18.206;2022-11-09T04:50:40;99001.52;;;8.85;93.17
34103;BME280;20381;54.498;18.206;2022-11-09T04:53:11;98992.20;;;8.81;93.13
34103;BME280;20381;54.498;18.206;2022-11-09T04:55:40;98994.19;;;8.76;93.14
34103;BME280;20381;54.498;18.206;2022-11-09T04:58:07;98990.98;;;8.70;93.16
34103;BME280;20381;54.498;18.206;2022-11-09T05:00:35;98996.34;;;8.67;93.28
34103;BME280;20381;54.498;18.206;2022-11-09T05:03:03;99000.64;;;8.68;93.03
34103;BME280;20381;54.498;18.206;2022-11-09T05:05:36;98994.67;;;8.66;93.03
34103;BME280;20381;54.498;18.206;2022-11-09T05:08:04;99001.09;;;8.59;93.07
34103;BME280;20381;54.498;18.206;2022-11-09T05:10:31;99007.54;;;8.52;93.09
34103;BME280;20381;54.498;18.206;2022-11-09T05:13:04;99008.91;;;8.50;93.04
34103;BME280;20381;54.498;18.206;2022-11-09T05:15:30;99006.09;;;8.46;93.02
34103;BME280;20381;54.498;18.206;2022-11-09T05:17:57;99015.66;;;8.46;93.01
34103;BME280;20381;54.498;18.206;2022-11-09T05:20:24;99014.79;;;8.45;92.86
34103;BME280;20381;54.498;18.206;2022-11-09T05:22:51;99017.64;;;8.41;92.77
34103;BME280;20381;54.498;18.206;2022-11-09T05:25:35;99022.09;;;8.37;92.80
34103;BME280;20381;54.498;18.206;2022-11-09T05:28:02;99016.98;;;8.36;92.86
34103;BME280;20381;54.498;18.206;2022-11-09T05:30:29;99012.25;;;8.26;93.15
34103;BME280;20381;54.498;18.206;2022-11-09T05:32:56;99018.44;;;8.24;93.18
34103;BME280;20381;54.498;18.206;2022-11-09T05:35:22;99015.90;;;8.22;93.13
34103;BME280;20381;54.498;18.206;2022-11-09T05:37:49;99016.05;;;8.19;93.20
34103;BME280;20381;54.498;18.206;2022-11-09T05:40:17;99018.50;;;8.22;92.87
34103;BME280;20381;54.498;18.206;2022-11-09T05:42:44;99018.50;;;8.22;92.65
34103;BME280;20381;54.498;18.206;2022-11-09T05:45:14;99015.43;;;8.14;92.79
34103;BME280;20381;54.498;18.206;2022-11-09T05:47:42;99015.73;;;8.08;93.04
34103;BME280;20381;54.498;18.206;2022-11-09T05:50:14;99019.41;;;8.04;93.10
34103;BME280;20381;54.498;18.206;2022-11-09T05:52:41;99013.34;;;8.03;93.08
34103;BME280;20381;54.498;18.206;2022-11-09T05:55:08;99009.91;;;8.03;92.94
34103;BME280;20381;54.498;18.206;2022-11-09T05:57:35;99013.03;;;8.01;92.88
34103;BME280;20381;54.498;18.206;2022-11-09T06:00:03;99015.41;;;7.97;92.81
34103;BME280;20381;54.498;18.206;2022-11-09T06:02:31;99017.31;;;7.93;92.94
34103;BME280;20381;54.498;18.206;2022-11-09T06:04:58;99019.83;;;7.95;92.91
34103;BME280;20381;54.498;18.206;2022-11-09T06:07:25;99024.50;;;7.97;92.78
34103;BME280;20381;54.498;18.206;2022-11-09T06:09:52;99028.84;;;7.88;93.05
34103;BME280;20381;54.498;18.206;2022-11-09T06:12:19;99029.00;;;7.84;93.17
34103;BME280;20381;54.498;18.206;2022-11-09T06:14:45;99023.80;;;7.84;93.16
34103;BME280;20381;54.498;18.206;2022-11-09T06:17:12;99026.39;;;7.84;93.35
34103;BME280;20381;54.498;18.206;2022-11-09T06:19:39;99016.75;;;7.87;93.37
34103;BME280;20381;54.498;18.206;2022-11-09T06:22:06;99013.80;;;7.94;93.30
34103;BME280;20381;54.498;18.206;2022-11-09T06:24:32;99018.16;;;7.94;93.40
34103;BME280;20381;54.498;18.206;2022-11-09T06:26:59;99012.50;;;8.03;93.29
34103;BME280;20381;54.498;18.206;2022-11-09T06:29:26;99018.33;;;8.08;93.09
34103;BME280;20381;54.498;18.206;2022-11-09T06:31:52;99030.41;;;8.09;93.04
34103;BME280;20381;54.498;18.206;2022-11-09T06:34:19;99032.73;;;8.15;93.06
34103;BME280;20381;54.498;18.206;2022-11-09T06:36:46;99026.08;;;8.18;92.96
34103;BME280;20381;54.498;18.206;2022-11-09T06:39:13;99029.20;;;8.16;93.03
34103;BME280;20381;54.498;18.206;2022-11-09T06:41:40;99028.84;;;8.15;93.16
34103;BME280;20381;54.498;18.206;2022-11-09T06:44:07;99031.13;;;8.13;93.33
34103;BME280;20381;54.498;18.206;2022-11-09T06:46:34;99039.23;;;8.15;93.46
34103;BME280;20381;54.498;18.206;2022-11-09T06:49:00;99040.23;;;8.21;93.32
34103;BME280;20381;54.498;18.206;2022-11-09T06:51:27;99034.88;;;8.24;93.29
34103;BME280;20381;54.498;18.206;2022-11-09T06:53:54;99034.67;;;8.38;93.14
34103;BME280;20381;54.498;18.206;2022-11-09T06:56:20;99034.67;;;8.38;93.14
34103;BME280;20381;54.498;18.206;2022-11-09T06:58:49;99038.83;;;8.42;93.10
34103;BME280;20381;54.498;18.206;2022-11-09T07:01:17;99041.05;;;8.41;93.07
34103;BME280;20381;54.498;18.206;2022-11-09T07:03:44;99033.99;;;8.43;93.08
34103;BME280;20381;54.498;18.206;2022-11-09T07:06:14;99034.77;;;8.45;92.99
34103;BME280;20381;54.498;18.206;2022-11-09T07:08:41;99044.28;;;8.46;93.20
34103;BME280;20381;54.498;18.206;2022-11-09T07:11:13;99046.41;;;8.46;93.21
34103;BME280;20381;54.498;18.206;2022-11-09T07:13:45;99037.77;;;8.46;93.34
34103;BME280;20381;54.498;18.206;2022-11-09T07:16:15;99024.83;;;8.53;93.40
34103;BME280;20381;54.498;18.206;2022-11-09T07:18:43;99028.81;;;8.60;93.43
34103;BME280;20381;54.498;18.206;2022-11-09T07:21:11;99025.74;;;8.69;93.53
34103;BME280;20381;54.498;18.206;2022-11-09T07:23:38;99024.95;;;8.85;93.62
34103;BME280;20381;54.498;18.206;2022-11-09T07:26:05;99023.80;;;8.99;93.58
34103;BME280;20381;54.498;18.206;2022-11-09T07:28:31;99044.66;;;9.15;93.48
34103;BME280;20381;54.498;18.206;2022-11-09T07:30:58;99042.30;;;9.35;93.64
34103;BME280;20381;54.498;18.206;2022-11-09T07:33:25;99034.66;;;9.56;93.85
34103;BME280;20381;54.498;18.206;2022-11-09T07:35:54;99030.31;;;9.80;93.53
34103;BME280;20381;54.498;18.206;2022-11-09T07:38:20;99019.41;;;9.89;93.16
34103;BME280;20381;54.498;18.206;2022-11-09T07:40:47;99030.02;;;9.93;92.93
34103;BME280;20381;54.498;18.206;2022-11-09T07:43:14;99033.39;;;9.95;92.72
34103;BME280;20381;54.498;18.206;2022-11-09T07:45:42;99025.03;;;9.97;92.61
34103;BME280;20381;54.498;18.206;2022-11-09T07:48:10;99032.45;;;9.96;92.61
34103;BME280;20381;54.498;18.206;2022-11-09T07:50:39;99045.89;;;9.97;92.90
34103;BME280;20381;54.498;18.206;2022-11-09T07:53:06;99037.14;;;9.98;92.96
34103;BME280;20381;54.498;18.206;2022-11-09T07:55:34;99046.09;;;10.01;92.72
34103;BME280;20381;54.498;18.206;2022-11-09T07:58:07;99052.27;;;10.07;92.71
34103;BME280;20381;54.498;18.206;2022-11-09T08:00:34;99059.18;;;10.08;92.62
34103;BME280;20381;54.498;18.206;2022-11-09T08:03:01;99047.81;;;10.09;92.56
34103;BME280;20381;54.498;18.206;2022-11-09T08:05:29;99044.84;;;10.08;92.68
34103;BME280;20381;54.498;18.206;2022-11-09T08:07:56;99041.36;;;10.08;92.96
34103;BME280;20381;54.498;18.206;2022-11-09T08:10:25;99048.39;;;10.15;92.83
34103;BME280;20381;54.498;18.206;2022-11-09T08:12:54;99052.13;;;10.18;92.72
34103;BME280;20381;54.498;18.206;2022-11-09T08:15:23;99049.17;;;10.24;92.83
34103;BME280;20381;54.498;18.206;2022-11-09T08:17:50;99047.72;;;10.27;92.88
34103;BME280;20381;54.498;18.206;2022-11-09T08:20:22;99052.59;;;10.33;92.67
34103;BME280;20381;54.498;18.206;2022-11-09T08:22:46;99056.33;;;10.36;92.72
34103;BME280;20381;54.498;18.206;2022-11-09T08:25:13;99048.72;;;10.40;92.87
34103;BME280;20381;54.498;18.206;2022-11-09T08:27:40;99048.28;;;10.48;92.87
34103;BME280;20381;54.498;18.206;2022-11-09T08:30:10;99048.00;;;10.52;92.64
34103;BME280;20381;54.498;18.206;2022-11-09T08:32:40;99036.36;;;10.58;92.57
34103;BME280;20381;54.498;18.206;2022-11-09T08:35:09;99035.38;;;10.68;92.55
34103;BME280;20381;54.498;18.206;2022-11-09T08:37:37;99035.38;;;10.68;92.55
34103;BME280;20381;54.498;18.206;2022-11-09T08:40:05;99034.83;;;10.70;92.20
34103;BME280;20381;54.498;18.206;2022-11-09T08:42:32;99037.91;;;10.77;92.53
34103;BME280;20381;54.498;18.206;2022-11-09T08:44:59;99043.91;;;10.93;92.95
34103;BME280;20381;54.498;18.206;2022-11-09T08:47:27;99039.64;;;11.06;92.53
34103;BME280;20381;54.498;18.206;2022-11-09T08:49:54;99038.25;;;11.15;92.72
34103;BME280;20381;54.498;18.206;2022-11-09T08:52:21;99019.02;;;11.23;92.59
34103;BME280;20381;54.498;18.206;2022-11-09T08:54:48;99028.14;;;11.45;92.52
34103;BME280;20381;54.498;18.206;2022-11-09T08:57:17;99023.83;;;11.51;92.06
34103;BME280;20381;54.498;18.206;2022-11-09T08:59:44;99029.81;;;11.53;91.95
34103;BME280;20381;54.498;18.206;2022-11-09T09:02:11;99029.81;;;11.53;91.95
34103;BME280;20381;54.498;18.206;2022-11-09T09:04:40;99027.20;;;11.53;91.53
34103;BME280;20381;54.498;18.206;2022-11-09T09:07:08;99026.08;;;11.50;91.56
34103;BME280;20381;54.498;18.206;2022-11-09T09:09:35;99026.00;;;11.51;91.95
34103;BME280;20381;54.498;18.206;2022-11-09T09:12:06;99025.11;;;11.72;91.69
34103;BME280;20381;54.498;18.206;2022-11-09T09:14:34;99033.12;;;11.83;91.58
34103;BME280;20381;54.498;18.206;2022-11-09T09:17:01;99043.13;;;11.91;90.95
34103;BME280;20381;54.498;18.206;2022-11-09T09:19:28;99034.17;;;11.88;90.67
34103;BME280;20381;54.498;18.206;2022-11-09T09:21:55;99029.30;;;11.89;90.64
34103;BME280;20381;54.498;18.206;2022-11-09T09:24:22;99027.88;;;11.98;90.86
34103;BME280;20381;54.498;18.206;2022-11-09T09:26:49;99032.55;;;12.00;90.45
34103;BME280;20381;54.498;18.206;2022-11-09T09:29:19;99037.07;;;11.91;90.81
34103;BME280;20381;54.498;18.206;2022-11-09T09:31:49;99045.64;;;11.93;90.94
34103;BME280;20381;54.498;18.206;2022-11-09T09:34:16;99025.81;;;12.03;91.03
34103;BME280;20381;54.498;18.206;2022-11-09T09:36:42;99031.59;;;12.08;90.88
34103;BME280;20381;54.498;18.206;2022-11-09T09:39:09;99038.95;;;12.16;90.85
34103;BME280;20381;54.498;18.206;2022-11-09T09:50:10;99039.53;;;12.34;90.69
34103;BME280;20381;54.498;18.206;2022-11-09T09:55:33;99044.16;;;12.43;90.72
34103;BME280;20381;54.498;18.206;2022-11-09T10:01:35;99050.77;;;12.48;90.04
34103;BME280;20381;54.498;18.206;2022-11-09T10:03:48;99038.06;;;12.49;89.71
34103;BME280;20381;54.498;18.206;2022-11-09T10:12:47;99023.19;;;12.50;89.46
34103;BME280;20381;54.498;18.206;2022-11-09T10:20:21;99023.64;;;12.69;89.34
34103;BME280;20381;54.498;18.206;2022-11-09T10:25:48;99020.95;;;12.76;88.98
34103;BME280;20381;54.498;18.206;2022-11-09T10:28:18;99018.75;;;12.70;89.00
34103;BME280;20381;54.498;18.206;2022-11-09T10:30:48;99006.97;;;12.70;88.87
34103;BME280;20381;54.498;18.206;2022-11-09T10:33:19;99007.74;;;12.65;88.79
34103;BME280;20381;54.498;18.206;2022-11-09T10:35:51;99007.39;;;12.64;88.80
34103;BME280;20381;54.498;18.206;2022-11-09T10:38:21;98996.23;;;12.55;88.40
34103;BME280;20381;54.498;18.206;2022-11-09T10:43:41;99000.39;;;12.45;88.26
34103;BME280;20381;54.498;18.206;2022-11-09T10:46:08;98995.77;;;12.36;88.87
34103;BME280;20381;54.498;18.206;2022-11-09T10:48:37;99009.41;;;12.41;89.25
34103;BME280;20381;54.498;18.206;2022-11-09T10:51:05;99011.16;;;12.40;88.98
34103;BME280;20381;54.498;18.206;2022-11-09T10:54:12;99012.26;;;12.43;88.96
34103;BME280;20381;54.498;18.206;2022-11-09T10:56:45;99022.56;;;12.46;88.84
34103;BME280;20381;54.498;18.206;2022-11-09T10:59:39;99024.11;;;12.49;88.93
34103;BME280;20381;54.498;18.206;2022-11-09T11:07:34;99041.23;;;12.27;88.00
34103;BME280;20381;54.498;18.206;2022-11-09T11:10:18;99046.48;;;12.20;88.17
34103;BME280;20381;54.498;18.206;2022-11-09T11:13:17;99039.04;;;12.14;88.12
34103;BME280;20381;54.498;18.206;2022-11-09T11:15:38;99039.44;;;12.08;88.07
34103;BME280;20381;54.498;18.206;2022-11-09T11:18:18;99030.09;;;12.04;88.23
34103;BME280;20381;54.498;18.206;2022-11-09T11:21:03;99031.05;;;12.03;88.40
34103;BME280;20381;54.498;18.206;2022-11-09T11:23:40;99025.81;;;12.03;88.13
34103;BME280;20381;54.498;18.206;2022-11-09T11:29:00;99024.14;;;12.02;88.23
34103;BME280;20381;54.498;18.206;2022-11-09T11:31:29;99024.86;;;12.04;88.16
34103;BME280;20381;54.498;18.206;2022-11-09T11:33:57;99012.53;;;12.06;87.94
34103;BME280;20381;54.498;18.206;2022-11-09T11:37:22;99012.53;;;12.06;87.94
34103;BME280;20381;54.498;18.206;2022-11-09T11:39:21;99007.84;;;12.11;88.18
34103;BME280;20381;54.498;18.206;2022-11-09T11:44:45;99002.11;;;12.19;88.22
34103;BME280;20381;54.498;18.206;2022-11-09T11:47:27;99002.11;;;12.19;88.22
34103;BME280;20381;54.498;18.206;2022-11-09T11:50:09;99024.18;;;12.35;88.07
34103;BME280;20381;54.498;18.206;2022-11-09T11:52:49;99027.81;;;12.39;87.94
34103;BME280;20381;54.498;18.206;2022-11-09T12:01:41;99047.16;;;12.44;87.76
34103;BME280;20381;54.498;18.206;2022-11-09T12:04:39;99051.46;;;12.38;87.29
34103;BME280;20381;54.498;18.206;2022-11-09T12:16:23;99057.84;;;12.06;87.26
34103;BME280;20381;54.498;18.206;2022-11-09T12:19:22;99056.26;;;12.04;87.27
34103;BME280;20381;54.498;18.206;2022-11-09T12:21:54;99054.11;;;12.11;87.53
34103;BME280;20381;54.498;18.206;2022-11-09T12:30:18;99054.74;;;12.14;87.41
34103;BME280;20381;54.498;18.206;2022-11-09T12:35:40;99068.07;;;11.97;86.64
34103;BME280;20381;54.498;18.206;2022-11-09T12:38:16;99071.99;;;11.82;86.73
34103;BME280;20381;54.498;18.206;2022-11-09T12:46:34;99068.66;;;11.45;87.37
34103;BME280;20381;54.498;18.206;2022-11-09T12:49:04;99062.14;;;11.23;87.46
34103;BME280;20381;54.498;18.206;2022-11-09T12:51:32;99062.14;;;11.23;87.46
34103;BME280;20381;54.498;18.206;2022-11-09T12:54:02;99078.47;;;11.27;87.36
34103;BME280;20381;54.498;18.206;2022-11-09T12:56:34;99077.14;;;11.19;87.32
34103;BME280;20381;54.498;18.206;2022-11-09T13:01:58;99070.59;;;11.05;87.54
34103;BME280;20381;54.498;18.206;2022-11-09T13:04:26;99069.40;;;11.04;87.64
34103;BME280;20381;54.498;18.206;2022-11-09T13:09:43;99065.27;;;11.00;87.72
34103;BME280;20381;54.498;18.206;2022-11-09T13:12:34;99062.48;;;10.95;87.77
34103;BME280;20381;54.498;18.206;2022-11-09T13:15:25;99057.05;;;10.91;87.83
34103;BME280;20381;54.498;18.206;2022-11-09T13:17:56;99052.77;;;10.90;87.91
34103;BME280;20381;54.498;18.206;2022-11-09T13:25:56;99056.29;;;10.89;88.21
34103;BME280;20381;54.498;18.206;2022-11-09T13:31:01;99059.40;;;10.96;88.33
34103;BME280;20381;54.498;18.206;2022-11-09T13:33:31;99058.55;;;11.03;88.45
34103;BME280;20381;54.498;18.206;2022-11-09T13:38:39;99059.23;;;11.06;88.25
34103;BME280;20381;54.498;18.206;2022-11-09T13:46:52;99055.20;;;11.08;88.34
34103;BME280;20381;54.498;18.206;2022-11-09T13:52:04;99067.70;;;11.03;88.47
34103;BME280;20381;54.498;18.206;2022-11-09T13:54:34;99043.80;;;10.94;88.50
34103;BME280;20381;54.498;18.206;2022-11-09T13:57:05;99056.49;;;11.01;88.55
34103;BME280;20381;54.498;18.206;2022-11-09T14:02:23;99067.52;;;10.98;88.39
34103;BME280;20381;54.498;18.206;2022-11-09T14:04:51;99072.56;;;11.02;88.49
34103;BME280;20381;54.498;18.206;2022-11-09T14:07:26;99080.48;;;10.93;88.69
34103;BME280;20381;54.498;18.206;2022-11-09T14:15:52;99080.95;;;10.92;88.91
34103;BME280;20381;54.498;18.206;2022-11-09T14:24:22;99079.09;;;11.02;89.24
34103;BME280;20381;54.498;18.206;2022-11-09T14:29:52;99079.29;;;11.13;88.98
34103;BME280;20381;54.498;18.206;2022-11-09T14:32:35;99085.27;;;11.15;89.15
34103;BME280;20381;54.498;18.206;2022-11-09T14:35:22;99078.16;;;11.17;89.01
34103;BME280;20381;54.498;18.206;2022-11-09T14:37:57;99078.16;;;11.17;89.03
34103;BME280;20381;54.498;18.206;2022-11-09T14:40:27;99083.58;;;11.14;88.91
34103;BME280;20381;54.498;18.206;2022-11-09T14:43:09;99080.23;;;11.12;88.95
34103;BME280;20381;54.498;18.206;2022-11-09T14:45:34;99082.35;;;11.05;88.76
34103;BME280;20381;54.498;18.206;2022-11-09T14:48:03;99088.97;;;10.96;88.80
34103;BME280;20381;54.498;18.206;2022-11-09T14:50:32;99094.55;;;10.90;88.85
34103;BME280;20381;54.498;18.206;2022-11-09T14:53:03;99093.43;;;10.87;89.05
34103;BME280;20381;54.498;18.206;2022-11-09T14:55:33;99100.98;;;10.85;88.96
34103;BME280;20381;54.498;18.206;2022-11-09T14:58:04;99098.08;;;10.82;89.01
34103;BME280;20381;54.498;18.206;2022-11-09T15:00:33;99099.74;;;10.76;88.97
34103;BME280;20381;54.498;18.206;2022-11-09T15:03:21;99091.16;;;10.74;89.10
34103;BME280;20381;54.498;18.206;2022-11-09T15:06:10;99095.61;;;10.72;89.06